ěÝzenÝ letovÚho provozu ╚eskÚ republiky
Letiste: LKPR Aktualizace: 26.11.2022 18:30:32  UTC
 METAR LKPR 26.11. 18:30 ...
METAR LKPR 261830Z 23005KT CAVOK 04/02 Q1030 NOSIG=
 TAF LKPR 26.11. 17:00 ...
TAF LKPR 261700Z 2618/2800 30008KT 9999 BKN030      BECMG 2620/2622 22006KT CAVOK      BECMG 2701/2704 0900 FG OVC002      TEMPO 2704/2709 0400 FZFG VV001      BECMG 2709/2711 11004KT 2000 BR OVC004      TEMPO 2711/2716 5000 BR BKN006      BECMG 2716/2718 0700 FG OVC002      TEMPO 2718/2800 0300 FZFG VV001=